Time;durP1;ratioP1;P1;durP2;ratioP2;P2;SDS_P1;SDS_P2;PMS_P1;PMS_P2;Temp;Humidity;BMP_temperature;BMP_pressure;BME280_temperature;BME280_humidity;BME280_pressure;Samples;Min_cycle;Max_cycle;Signal;HPM_P1;HPM_P2
2021/05/07 00:01:15;;;;;;;5.72;5.15;;;;;;;18.20;47.88;94199.45;828267;71;32717;-78
2021/05/07 00:16:09;;;;;;;5.05;4.55;;;;;;;18.05;48.59;94200.23;830053;70;29784;-77
2021/05/07 00:31:09;;;;;;;4.67;4.30;;;;;;;17.89;49.18;94181.06;828143;71;29882;-76
2021/05/07 00:46:08;;;;;;;4.30;4.00;;;;;;;17.67;49.72;94184.27;834127;71;29777;-76
2021/05/07 01:01:08;;;;;;;7.17;4.47;;;;;;;17.62;49.89;94190.04;828357;71;29295;-75
2021/05/07 01:16:09;;;;;;;4.92;3.95;;;;;;;17.50;50.26;94189.30;834226;71;29955;-76
2021/05/07 01:31:10;;;;;;;4.70;4.30;;;;;;;17.35;50.68;94186.84;829635;71;29302;-77
2021/05/07 01:46:09;;;;;;;4.50;4.10;;;;;;;17.19;50.97;94178.83;829444;71;29985;-78
2021/05/07 02:01:08;;;;;;;4.83;4.42;;;;;;;17.12;51.04;94166.16;829420;71;29669;-77
2021/05/07 02:16:12;;;;;;;4.67;4.10;;;;;;;17.00;51.68;94166.95;829837;71;31386;-77
2021/05/07 02:31:08;;;;;;;5.15;4.67;;;;;;;16.90;52.04;94153.41;829265;71;29958;-75
2021/05/07 02:46:09;;;;;;;5.00;4.50;;;;;;;16.88;52.28;94164.34;834550;71;30659;-76
2021/05/07 03:16:21;;;;;;;6.70;4.20;;;;;;;16.89;54.06;94173.85;827732;71;31717;-81
2021/05/07 03:31:16;;;;;;;5.40;4.62;;;;;;;18.10;51.16;94180.81;834843;71;32239;-75
2021/05/07 03:46:08;;;;;;;5.40;5.00;;;;;;;19.99;51.43;94205.06;834577;71;29208;-77
2021/05/07 04:01:15;;;;;;;5.22;4.35;;;;;;;21.27;43.84;94185.45;827426;71;31700;-76
2021/05/07 04:16:14;;;;;;;9.35;5.70;;;;;;;18.77;47.75;94223.91;827624;71;31742;-77
2021/05/07 04:31:08;;;;;;;10.43;7.45;;;;;;;17.66;51.71;94233.92;834242;71;28708;-78
2021/05/07 04:46:08;;;;;;;5.97;4.40;;;;;;;18.81;56.08;94244.16;828303;71;28726;-79
2021/05/07 05:01:12;;;;;;;6.62;4.90;;;;;;;19.20;54.35;94248.78;828273;71;31055;-76
2021/05/07 05:16:08;;;;;;;7.78;5.97;;;;;;;20.32;48.36;94244.45;828745;71;28690;-74
2021/05/07 05:31:14;;;;;;;10.82;7.45;;;;;;;20.75;46.32;94248.39;815269;71;31786;-75
2021/05/07 05:46:13;;;;;;;9.68;7.70;;;;;;;21.09;44.65;94250.59;828424;71;31608;-74
2021/05/07 06:01:15;;;;;;;7.42;6.60;;;;;;;21.09;44.64;94255.93;827462;71;31775;-78
2021/05/07 06:16:18;;;;;;;6.15;5.55;;;;;;;21.74;43.16;94264.20;827558;71;32210;-76
2021/05/07 06:31:14;;;;;;;7.67;6.87;;;;;;;22.34;41.46;94239.81;833945;71;31710;-76
2021/05/07 07:01:11;;;;;;;6.67;5.50;;;;;;;22.29;40.52;94225.46;828795;71;29669;-77
2021/05/07 07:16:21;;;;;;;6.28;5.67;;;;;;;21.67;41.29;94212.61;834690;71;32685;-76
2021/05/07 07:31:08;;;;;;;8.43;6.80;;;;;;;22.15;41.08;94196.09;828385;71;29646;-77
2021/05/07 07:46:14;;;;;;;5.40;4.90;;;;;;;22.56;40.10;94181.92;828341;71;32681;-76
2021/05/07 08:01:19;;;;;;;6.57;5.87;;;;;;;22.99;39.16;94160.22;834913;71;32685;-75
2021/05/07 08:16:08;;;;;;;6.97;5.20;;;;;;;23.16;38.82;94133.35;835627;71;29682;-77
2021/05/07 08:31:08;;;;;;;9.73;5.50;;;;;;;23.50;38.13;94137.66;828523;71;29655;-76
2021/05/07 08:46:08;;;;;;;5.63;4.93;;;;;;;23.50;37.97;94130.41;828448;71;29689;-77
2021/05/07 09:01:52;;;;;;;8.40;5.70;;;;;;;23.75;37.26;94108.25;829059;71;32720;-74
2021/05/07 09:16:16;;;;;;;6.47;5.53;;;;;;;24.78;34.85;94087.31;828505;71;32755;-75
2021/05/07 09:31:16;;;;;;;7.30;5.30;;;;;;;24.42;34.16;94083.17;832620;71;29648;-77
2021/05/07 09:46:08;;;;;;;3.97;3.13;;;;;;;24.64;32.53;94041.74;834382;71;29696;-76
2021/05/07 10:01:09;;;;;;;5.93;3.97;;;;;;;25.93;31.07;94020.88;828624;71;29834;-77
2021/05/07 10:16:10;;;;;;;4.07;3.70;;;;;;;24.84;31.96;94029.98;828520;71;29999;-76
2021/05/07 10:31:15;;;;;;;4.00;2.60;;;;;;;25.77;28.73;94017.89;828527;71;32254;-75
2021/05/07 10:46:33;;;;;;;3.30;2.53;;;;;;;26.70;28.40;93984.73;824266;71;33259;-77
2021/05/07 11:01:22;;;;;;;3.50;2.80;;;;;;;;;;827500;71;32760;-76
2021/05/07 11:16:09;;;;;;;2.80;2.60;;;;;;;28.73;25.49;166250.64;828231;71;30248;-75
2021/05/07 11:31:08;;;;;;;2.33;2.13;;;;;;;29.54;24.60;93912.92;834776;71;30170;-76
2021/05/07 11:46:13;;;;;;;3.27;2.47;;;;;;;30.25;22.87;93903.37;828285;71;32645;-78
2021/05/07 12:01:10;;;;;;;3.63;2.77;;;;;;;29.21;23.39;93931.68;828388;71;30351;-77
2021/05/07 12:16:08;;;;;;;3.27;2.77;;;;;;;28.00;25.13;93904.63;828509;71;29723;-76
2021/05/07 12:31:32;;;;;;;4.33;2.33;;;;;;;27.49;25.68;93881.22;834184;71;32840;-77
2021/05/07 12:46:15;;;;;;;3.33;2.70;;;;;;;27.42;23.85;165900.77;827788;71;32686;-74
2021/05/07 13:01:15;;;;;;;3.27;2.70;;;;;;;26.91;24.43;93836.93;827869;71;31725;-76
2021/05/07 13:16:13;;;;;;;4.90;2.50;;;;;;;26.86;25.33;93823.16;828402;71;30278;-77
2021/05/07 13:31:10;;;;;;;6.27;2.50;;;;;;;26.58;25.75;93821.07;828454;71;29318;-76
2021/05/07 13:46:09;;;;;;;2.40;2.20;;;;;;;;;;828618;71;29221;-74
2021/05/07 14:01:15;;;;;;;3.57;2.43;;;;;;;26.91;24.44;93793.09;828685;71;31577;-75
2021/05/07 14:16:10;;;;;;;2.10;1.90;;;;;;;26.80;24.53;93771.70;828587;71;29313;-75
2021/05/07 14:31:15;;;;;;;2.73;2.10;;;;;;;;;;828517;71;31696;-74
2021/05/07 14:46:35;;;;;;;2.80;2.60;;;;;;;26.85;24.45;93741.64;833947;71;32239;-77
2021/05/07 15:01:47;;;;;;;6.97;2.80;;;;;;;26.17;29.01;93740.72;827449;71;31778;-79
2021/05/07 15:16:09;;;;;;;8.00;3.40;;;;;;;26.09;28.26;93733.92;828131;71;29262;-77
2021/05/07 15:31:18;;;;;;;2.67;2.47;;;;;;;25.75;28.11;93710.55;834295;71;31776;-76
2021/05/07 15:46:10;;;;;;;2.60;2.40;;;;;;;25.49;28.79;93727.39;828428;71;29715;-77
2021/05/07 16:01:15;;;;;;;3.50;2.77;;;;;;;25.30;30.07;93703.98;828247;71;31659;-74
2021/05/07 16:16:28;;;;;;;3.63;3.30;;;;;;;24.76;31.01;93707.80;830273;71;31781;-75
2021/05/07 16:31:15;;;;;;;4.30;2.43;;;;;;;24.58;30.89;93703.92;793484;74;31862;-76
2021/05/07 16:46:15;;;;;;;4.90;3.27;;;;;;;24.31;32.63;93711.76;834092;71;31720;-77
2021/05/07 17:01:11;;;;;;;6.00;5.00;;;;;;;24.23;34.65;93732.52;821012;71;30525;-77
2021/05/07 17:16:14;;;;;;;4.30;2.60;;;;;;;23.71;34.25;93719.01;833979;71;31791;-75
2021/05/07 17:31:16;;;;;;;5.57;3.33;;;;;;;23.21;35.47;93730.66;827428;71;31768;-78
2021/05/07 17:46:10;;;;;;;3.10;2.80;;;;;;;22.79;36.00;93742.39;829123;71;29203;-78
2021/05/07 18:16:40;;;;;;;2.70;2.50;;;;;;;22.02;36.46;93763.33;810226;72;31823;-82
2021/05/07 18:46:19;;;;;;;2.55;2.35;;;;;;;21.44;37.64;93782.95;834141;71;32320;-80
2021/05/07 19:01:08;;;;;;;2.72;2.52;;;;;;;21.24;37.54;93768.52;830236;71;28674;-78
2021/05/07 19:16:15;;;;;;;3.17;2.87;;;;;;;21.11;37.91;93778.75;817950;71;31572;-81
2021/05/07 19:46:17;;;;;;;2.85;2.60;;;;;;;20.92;38.21;93780.33;827933;71;31716;-82
2021/05/07 20:01:08;;;;;;;2.58;2.33;;;;;;;21.08;38.72;93794.73;819465;71;28698;-78
2021/05/07 20:16:14;;;;;;;2.95;2.55;;;;;;;21.43;37.35;93772.06;827991;71;31792;-75
2021/05/07 20:31:15;;;;;;;4.97;2.77;;;;;;;21.64;37.76;93806.13;834198;71;31705;-76
2021/05/07 20:46:09;;;;;;;2.50;2.30;;;;;;;22.29;39.01;93830.59;828534;71;28730;-77
2021/05/07 21:01:41;;;;;;;2.37;2.17;;;;;;;22.56;38.87;93843.05;828537;71;29229;-75
2021/05/07 21:16:14;;;;;;;2.30;2.10;;;;;;;22.60;38.60;93827.77;820254;71;31932;-76
2021/05/07 21:31:15;;;;;;;2.90;2.58;;;;;;;22.61;39.21;93839.26;828644;71;31800;-75
2021/05/07 21:46:15;;;;;;;2.80;2.50;;;;;;;22.80;39.20;93850.91;827636;71;31838;-78
2021/05/07 22:01:08;;;;;;;3.63;3.03;;;;;;;22.76;39.21;93870.79;830027;71;28654;-75
2021/05/07 22:16:14;;;;;;;4.10;3.53;;;;;;;22.29;40.21;93885.39;834363;71;32349;-77
2021/05/07 22:31:09;;;;;;;3.50;3.20;;;;;;;22.11;41.01;93889.31;829342;71;28636;-76
2021/05/07 22:46:09;;;;;;;6.00;4.33;;;;;;;21.83;41.88;93907.88;835362;71;29536;-78
2021/05/07 23:01:10;;;;;;;6.30;3.80;;;;;;;22.53;40.86;93910.67;834367;71;29733;-76
2021/05/07 23:16:08;;;;;;;4.20;3.70;;;;;;;22.27;41.19;93897.03;828495;71;28666;-77
2021/05/07 23:31:12;;;;;;;4.17;3.80;;;;;;;22.47;41.35;93922.88;835212;71;32102;-76
2021/05/07 23:46:08;;;;;;;3.77;3.33;;;;;;;22.63;41.31;93928.45;834279;71;29648;-78
